METAR Data
IDs: Format: Raw Decoded Include TAF

Data at: 1727 UTC 03 Jun 2020

METAR for:K0CO (Berthoud Pass, CO, US)
Text:K0CO 031712Z AUTO 31018G23KT 10SM CLR 09/02 A3066 RMK AO2 TSNO PWINO
Temperature: 9.0°C ( 48°F)
Dewpoint: 2.0°C ( 36°F) [RH = 61%]
Pressure (altimeter):30.66 inches Hg (1038.4 mb)
Winds:from the NW (310 degrees) at 21 MPH (18 knots; 9.3 m/s) gusting to 26 MPH (23 knots; 11.8 m/s)
Visibility:10 or more sm (16+ km)
Ceiling:at least 12,000 feet AGL
Clouds:sky clear below 12,000 feet AGL
QC Flag:automated observation with no human augmentation